createdAt,value
2022-10-10T00:00:17.112Z,16.23
2022-10-10T00:04:19.071Z,16.30
2022-10-10T00:08:21.086Z,16.20
2022-10-10T00:12:23.111Z,16.08
2022-10-10T00:16:25.872Z,16.01
2022-10-10T00:20:27.922Z,15.97
2022-10-10T00:24:30.334Z,16.02
2022-10-10T00:28:32.742Z,16.07
2022-10-10T00:32:36.039Z,16.14
2022-10-10T00:36:37.989Z,16.16
2022-10-10T00:40:51.382Z,16.19
2022-10-10T00:45:30.059Z,16.23
2022-10-10T00:49:32.296Z,16.23
2022-10-10T00:53:47.002Z,16.18
2022-10-10T00:57:49.520Z,16.29
2022-10-10T01:01:51.501Z,16.18
2022-10-10T01:05:53.586Z,16.21
2022-10-10T01:10:00.009Z,16.26
2022-10-10T01:14:04.972Z,16.21
2022-10-10T01:18:25.818Z,16.17
2022-10-10T01:22:53.168Z,16.22
2022-10-10T01:27:10.126Z,16.28
2022-10-10T01:31:15.992Z,16.26
2022-10-10T01:35:45.931Z,16.23
2022-10-10T01:39:58.091Z,16.17
2022-10-10T01:44:00.106Z,16.08
2022-10-10T01:48:05.129Z,16.16
2022-10-10T01:52:39.159Z,16.22
2022-10-10T01:56:55.586Z,16.18
2022-10-10T02:00:57.553Z,16.07
2022-10-10T02:05:25.718Z,16.12
2022-10-10T02:09:36.047Z,16.07
2022-10-10T02:13:58.333Z,16.14
2022-10-10T02:18:01.855Z,16.22
2022-10-10T02:22:07.475Z,16.20
2022-10-10T02:26:13.895Z,16.17
2022-10-10T02:30:17.208Z,16.13
2022-10-10T02:34:24.038Z,16.15
2022-10-10T02:38:28.058Z,16.10
2022-10-10T02:42:30.338Z,16.16
2022-10-10T02:46:32.499Z,16.14
2022-10-10T02:50:35.027Z,16.00
2022-10-10T02:54:36.967Z,15.97
2022-10-10T02:58:39.016Z,16.06
2022-10-10T03:02:41.785Z,16.17
2022-10-10T03:06:43.844Z,16.26
2022-10-10T03:11:04.969Z,16.15
2022-10-10T03:15:11.408Z,16.01
2022-10-10T03:19:13.952Z,15.94
2022-10-10T03:23:15.998Z,15.99
2022-10-10T03:27:17.945Z,16.13
2022-10-10T03:31:19.916Z,16.17
2022-10-10T03:35:21.946Z,16.18
2022-10-10T03:39:24.992Z,16.13
2022-10-10T03:43:26.995Z,16.03
2022-10-10T03:47:29.010Z,16.04
2022-10-10T03:51:30.981Z,16.05
2022-10-10T03:55:33.054Z,16.04
2022-10-10T03:59:35.106Z,16.09
2022-10-10T04:03:37.209Z,16.16
2022-10-10T04:07:41.531Z,16.20
2022-10-10T04:11:43.535Z,16.21
2022-10-10T04:15:45.683Z,16.12
2022-10-10T04:19:47.651Z,15.96
2022-10-10T04:23:49.678Z,15.90
2022-10-10T04:27:51.631Z,15.72
2022-10-10T04:31:53.620Z,15.54
2022-10-10T04:35:55.616Z,15.53
2022-10-10T04:39:57.715Z,15.56
2022-10-10T04:43:59.676Z,15.56
2022-10-10T04:48:01.954Z,15.55
2022-10-10T04:52:04.009Z,15.48
2022-10-10T04:56:06.236Z,15.52
2022-10-10T05:00:09.641Z,15.50
2022-10-10T05:04:13.251Z,15.48
2022-10-10T05:08:15.349Z,15.36
2022-10-10T05:12:17.480Z,15.39
2022-10-10T05:16:19.520Z,15.40
2022-10-10T05:20:22.109Z,15.46
2022-10-10T05:24:24.516Z,15.42
2022-10-10T05:28:26.790Z,15.22
2022-10-10T05:32:29.996Z,15.04
2022-10-10T05:36:47.474Z,15.04
2022-10-10T05:40:58.141Z,14.97
2022-10-10T05:45:02.308Z,15.00
2022-10-10T05:49:06.019Z,14.96
2022-10-10T05:53:08.617Z,15.06
2022-10-10T05:57:16.069Z,15.02
2022-10-10T06:01:19.747Z,15.12
2022-10-10T06:05:47.838Z,15.21
2022-10-10T06:10:02.036Z,15.30
2022-10-10T06:14:13.368Z,15.17
2022-10-10T06:18:16.782Z,15.41
2022-10-10T06:22:19.665Z,15.53
2022-10-10T06:26:22.988Z,15.56
2022-10-10T06:30:25.616Z,15.72
2022-10-10T06:34:29.716Z,15.88
2022-10-10T06:38:37.932Z,15.91
2022-10-10T06:42:41.176Z,16.04
2022-10-10T06:46:44.695Z,16.22
2022-10-10T06:50:57.906Z,16.52
2022-10-10T06:55:00.016Z,16.63
2022-10-10T06:59:02.226Z,16.57
2022-10-10T07:03:04.638Z,16.82
2022-10-10T07:07:06.795Z,17.07
2022-10-10T07:11:09.573Z,17.14
2022-10-10T07:15:12.052Z,17.23
2022-10-10T07:19:14.111Z,17.23
2022-10-10T07:23:16.641Z,17.47
2022-10-10T07:27:18.670Z,17.63
2022-10-10T07:31:20.726Z,17.68
2022-10-10T07:35:23.786Z,17.63
2022-10-10T07:39:26.513Z,17.70
2022-10-10T07:43:28.558Z,17.91
2022-10-10T07:47:31.114Z,17.99
2022-10-10T07:51:33.611Z,18.22
2022-10-10T07:55:42.363Z,18.43
2022-10-10T07:59:45.816Z,18.66
2022-10-10T08:03:48.696Z,18.79
2022-10-10T08:07:51.178Z,18.93
2022-10-10T08:11:53.605Z,18.95
2022-10-10T08:15:55.907Z,18.95
2022-10-10T08:19:58.783Z,19.14
2022-10-10T08:24:00.954Z,19.36
2022-10-10T08:28:03.317Z,19.55
2022-10-10T08:32:07.778Z,19.75
2022-10-10T08:36:13.998Z,20.07
2022-10-10T08:40:19.711Z,20.14
2022-10-10T08:44:25.407Z,20.24
2022-10-10T08:48:31.649Z,20.37
2022-10-10T08:52:41.858Z,20.41
2022-10-10T08:56:47.472Z,20.46
2022-10-10T09:01:25.121Z,20.43
2022-10-10T09:05:42.609Z,20.58
2022-10-10T09:10:03.215Z,20.64
2022-10-10T09:14:32.816Z,20.62
2022-10-10T09:18:34.789Z,20.83
2022-10-10T09:22:53.195Z,20.99
2022-10-10T09:27:04.384Z,21.10
2022-10-10T09:31:15.017Z,21.22
2022-10-10T09:35:20.863Z,21.26
2022-10-10T09:39:38.224Z,21.51
2022-10-10T09:43:42.227Z,21.80
2022-10-10T09:47:45.231Z,21.85
2022-10-10T09:51:48.759Z,22.20
2022-10-10T09:55:53.879Z,22.15
2022-10-10T10:00:02.257Z,22.36
2022-10-10T10:04:28.384Z,22.31
2022-10-10T10:08:34.464Z,22.13
2022-10-10T10:12:42.127Z,22.36
2022-10-10T10:16:45.574Z,22.27
2022-10-10T10:21:11.872Z,22.48
2022-10-10T10:25:38.306Z,22.44
2022-10-10T10:29:47.218Z,22.65
2022-10-10T10:34:23.336Z,22.82
2022-10-10T10:38:47.073Z,22.91
2022-10-10T10:43:30.558Z,23.15
2022-10-10T10:47:58.702Z,23.32
2022-10-10T10:52:07.368Z,23.52
2022-10-10T10:56:37.312Z,23.63
2022-10-10T11:01:23.525Z,23.82
2022-10-10T11:05:39.868Z,23.81
2022-10-10T11:10:03.273Z,23.80
2022-10-10T11:14:42.716Z,23.76
2022-10-10T11:19:04.401Z,23.61
2022-10-10T11:23:24.760Z,23.48
2022-10-10T11:27:34.686Z,23.47
2022-10-10T11:31:45.636Z,23.33
2022-10-10T11:35:58.195Z,23.24
2022-10-10T11:40:05.223Z,23.12
2022-10-10T11:44:30.019Z,23.09
2022-10-10T11:48:48.888Z,22.98
2022-10-10T11:53:03.199Z,22.99
2022-10-10T11:57:17.105Z,23.01
2022-10-10T12:01:23.028Z,23.08
2022-10-10T12:05:47.685Z,23.01
2022-10-10T12:10:08.394Z,22.93
2022-10-10T12:14:18.792Z,22.87
2022-10-10T12:18:45.287Z,22.78
2022-10-10T12:23:39.321Z,22.79
2022-10-10T12:33:28.676Z,23.11
2022-10-10T12:53:22.811Z,23.01
2022-10-10T12:57:48.756Z,22.79
2022-10-10T13:02:10.652Z,22.72
2022-10-10T13:06:37.546Z,22.80
2022-10-10T13:11:13.458Z,22.59
2022-10-10T13:15:21.189Z,22.45
2022-10-10T13:19:25.813Z,22.43
2022-10-10T13:23:28.613Z,22.54
2022-10-10T13:27:33.807Z,22.43
2022-10-10T13:31:38.594Z,22.34
2022-10-10T13:35:40.717Z,22.28
2022-10-10T13:39:48.827Z,22.24
2022-10-10T13:43:58.165Z,22.25
2022-10-10T13:48:05.479Z,22.27
2022-10-10T13:52:25.896Z,22.41
2022-10-10T13:56:41.309Z,22.50
2022-10-10T14:00:55.456Z,22.66
2022-10-10T14:04:58.464Z,22.85
2022-10-10T14:09:18.267Z,22.99
2022-10-10T14:13:20.542Z,23.14
2022-10-10T14:17:22.924Z,23.08
2022-10-10T14:21:24.920Z,23.07
2022-10-10T14:25:26.883Z,23.04
2022-10-10T14:29:32.015Z,23.07
2022-10-10T14:33:34.488Z,23.03
2022-10-10T14:37:39.775Z,23.02
2022-10-10T14:41:46.432Z,23.07
2022-10-10T14:46:02.320Z,23.11
2022-10-10T14:50:14.639Z,23.15
2022-10-10T14:54:16.837Z,23.22
2022-10-10T14:58:23.786Z,23.30
2022-10-10T15:02:28.835Z,23.31
2022-10-10T15:06:30.938Z,23.34
2022-10-10T15:10:34.526Z,23.07
2022-10-10T15:14:37.752Z,22.68
2022-10-10T15:18:53.829Z,22.35
2022-10-10T15:23:01.575Z,21.78
2022-10-10T15:27:03.816Z,21.58
2022-10-10T15:31:06.156Z,21.29
2022-10-10T15:35:13.938Z,21.24
2022-10-10T15:39:16.675Z,21.15
2022-10-10T15:43:18.631Z,21.05
2022-10-10T15:47:20.967Z,20.95
2022-10-10T15:51:22.965Z,20.72
2022-10-10T15:55:25.137Z,20.58
2022-10-10T15:59:27.192Z,20.46
2022-10-10T16:03:29.498Z,20.30
2022-10-10T16:07:36.442Z,20.11
2022-10-10T16:11:42.889Z,19.91
2022-10-10T16:15:45.224Z,19.76
2022-10-10T16:19:47.169Z,19.50
2022-10-10T16:23:54.280Z,19.37
2022-10-10T16:27:59.744Z,19.25
2022-10-10T16:32:01.722Z,19.19
2022-10-10T16:36:17.648Z,19.05
2022-10-10T16:40:19.783Z,19.03
2022-10-10T16:44:22.097Z,18.94
2022-10-10T16:48:24.074Z,18.76
2022-10-10T16:52:26.189Z,18.71
2022-10-10T16:56:29.874Z,18.66
2022-10-10T17:00:32.011Z,18.62
2022-10-10T17:04:34.199Z,18.50
2022-10-10T17:08:36.959Z,18.50
2022-10-10T17:12:38.996Z,18.53
2022-10-10T17:21:05.300Z,18.73
2022-10-10T17:25:08.037Z,18.73
2022-10-10T17:29:10.129Z,18.81
2022-10-10T17:33:13.782Z,18.89
2022-10-10T17:37:15.866Z,18.84
2022-10-10T17:41:19.859Z,18.79
2022-10-10T17:45:21.820Z,18.61
2022-10-10T17:49:24.156Z,18.57
2022-10-10T17:53:26.715Z,18.60
2022-10-10T17:57:28.725Z,18.67
2022-10-10T18:01:31.262Z,18.66
2022-10-10T18:05:36.115Z,18.60
2022-10-10T18:09:38.207Z,18.47
2022-10-10T18:13:40.311Z,18.45
2022-10-10T18:17:42.432Z,18.43
2022-10-10T18:21:45.980Z,18.39
2022-10-10T18:25:48.020Z,18.39
2022-10-10T18:29:50.091Z,18.41
2022-10-10T18:33:52.528Z,18.41
2022-10-10T18:37:54.526Z,18.41
2022-10-10T18:41:56.604Z,18.39
2022-10-10T18:46:00.354Z,18.15
2022-10-10T18:50:03.504Z,17.92
2022-10-10T18:54:08.506Z,17.79
2022-10-10T18:58:10.590Z,17.69
2022-10-10T19:02:12.731Z,17.58
2022-10-10T19:06:15.792Z,17.48
2022-10-10T19:10:17.906Z,17.41
2022-10-10T19:14:20.704Z,17.39
2022-10-10T19:18:23.983Z,17.39
2022-10-10T19:22:25.990Z,17.37
2022-10-10T19:26:33.386Z,17.41
2022-10-10T19:30:40.478Z,17.43
2022-10-10T19:34:42.893Z,17.39
2022-10-10T19:38:44.882Z,17.43
2022-10-10T19:42:47.099Z,17.28
2022-10-10T19:46:49.083Z,17.27
2022-10-10T19:50:53.565Z,17.27
2022-10-10T19:54:55.662Z,17.17
2022-10-10T19:58:59.853Z,17.44
2022-10-10T20:03:02.399Z,17.50
2022-10-10T20:07:04.482Z,17.52
2022-10-10T20:11:06.886Z,17.39
2022-10-10T20:15:09.246Z,17.32
2022-10-10T20:19:11.515Z,17.26
2022-10-10T20:23:14.881Z,17.04
2022-10-10T20:27:17.056Z,16.87
2022-10-10T20:31:31.357Z,16.86
2022-10-10T20:35:34.634Z,16.68
2022-10-10T20:39:36.648Z,16.57
2022-10-10T20:43:39.549Z,16.55
2022-10-10T20:47:41.659Z,16.47
2022-10-10T20:51:48.821Z,16.46
2022-10-10T20:55:54.095Z,16.36
2022-10-10T20:59:56.125Z,16.33
2022-10-10T21:03:58.768Z,16.38
2022-10-10T21:08:01.750Z,16.38
2022-10-10T21:12:04.061Z,16.39
2022-10-10T21:16:16.911Z,16.35
2022-10-10T21:20:19.214Z,16.35
2022-10-10T21:24:21.191Z,16.26
2022-10-10T21:28:23.383Z,16.31
2022-10-10T21:32:26.535Z,16.19
2022-10-10T21:36:29.070Z,16.10
2022-10-10T21:40:31.074Z,16.19
2022-10-10T21:44:33.124Z,16.20
2022-10-10T21:48:35.275Z,16.16
2022-10-10T21:52:37.642Z,16.19
2022-10-10T21:56:40.220Z,16.11
2022-10-10T22:00:42.286Z,16.08
2022-10-10T22:04:44.291Z,16.10
2022-10-10T22:08:47.335Z,16.03
2022-10-10T22:12:49.286Z,15.98
2022-10-10T22:16:51.227Z,15.87
2022-10-10T22:20:53.710Z,15.94
2022-10-10T22:24:55.708Z,15.97
2022-10-10T22:28:58.496Z,15.98
2022-10-10T22:33:00.751Z,15.93
2022-10-10T22:37:02.755Z,15.68
2022-10-10T22:41:04.775Z,15.67
2022-10-10T22:45:07.130Z,15.64
2022-10-10T22:49:09.136Z,15.72
2022-10-10T22:53:11.080Z,15.69
2022-10-10T22:57:13.031Z,15.68
2022-10-10T23:01:18.073Z,15.65
2022-10-10T23:05:20.073Z,15.61
2022-10-10T23:09:22.033Z,15.63
2022-10-10T23:13:23.983Z,15.70
2022-10-10T23:17:25.948Z,15.78
2022-10-10T23:21:28.082Z,15.77
2022-10-10T23:25:30.093Z,15.78
2022-10-10T23:29:33.276Z,15.64
2022-10-10T23:33:37.170Z,15.59
2022-10-10T23:37:40.859Z,15.56
2022-10-10T23:41:42.932Z,15.45
2022-10-10T23:45:44.988Z,15.36
2022-10-10T23:49:46.965Z,15.51
2022-10-10T23:53:48.989Z,15.64
2022-10-10T23:57:51.090Z,15.67
